.
WxDataArchive / Data Records for 2012-06-02
2012-06-01 June 2012 2012-06-03

Data Records for Saturday, 02 June 2012

Time	Temp	Chill	HIndex	Humid	Dewpt	 Wind 	HiWind	WindDir	Rain 	Barom 
-----	----	-----	------	-----	-----	------	------	-------	-----	----- 
00:00	49.8	49.8	49.8	77	42.9	2	5	292	0.00	29.771 
00:05	49.8	49.8	49.8	77	42.9	1	3	270	0.00	29.771 
00:10	49.6	49.6	49.6	77	42.7	1	4	270	0.00	29.771 
00:15	49.6	49.6	49.6	77	42.7	2	5	270	0.00	29.772 
00:20	49.6	49.6	49.6	77	42.7	2	4	270	0.00	29.772 
00:25	49.8	49.8	49.8	77	42.9	2	5	270	0.00	29.772 
00:30	49.8	49.8	49.8	76	42.5	1	4	270	0.00	29.770 
00:35	49.8	49.8	49.8	77	42.9	1	4	270	0.00	29.770 
00:40	49.8	49.8	49.8	77	42.9	1	3	270	0.00	29.770 
00:45	49.8	49.8	49.8	77	42.9	1	3	270	0.00	29.768 
00:50	49.8	49.8	49.8	77	42.9	1	3	270	0.00	29.768 
00:55	49.6	49.6	49.6	77	42.7	1	4	270	0.00	29.768 
01:00	49.5	49.5	49.5	77	42.6	1	3	270	0.00	29.765 
01:05	49.4	49.4	49.4	77	42.5	1	3	270	0.00	29.765 
01:10	49.2	49.2	49.2	77	42.3	1	3	270	0.00	29.765 
01:15	48.9	48.9	48.9	78	42.3	1	4	270	0.00	29.764 
01:20	48.8	48.8	48.8	78	42.2	0	3	270	0.00	29.764 
01:25	48.8	48.8	48.8	79	42.6	0	2	270	0.00	29.764 
01:30	48.6	48.6	48.6	79	42.4	0	1	270	0.00	29.763 
01:35	48.3	48.3	48.3	79	42.1	0	1	270	0.00	29.763 
01:40	48.2	48.2	48.2	80	42.3	0	1	270	0.00	29.763 
01:45	48.0	48.0	48.0	80	42.1	0	1	270	0.00	29.762 
01:50	47.9	47.9	47.9	81	42.4	0	1	270	0.00	29.762 
01:55	47.7	47.7	47.7	81	42.2	0	1	270	0.00	29.762 
02:00	47.7	47.7	47.7	81	42.2	0	1	270	0.00	29.760 
02:05	47.7	47.7	47.7	81	42.2	0	2	270	0.00	29.760 
02:10	47.6	47.6	47.6	81	42.1	0	1	270	0.00	29.760 
02:15	47.6	47.6	47.6	82	42.4	0	0	---	0.00	29.757 
02:20	47.4	47.4	47.4	82	42.2	0	1	270	0.00	29.757 
02:25	47.4	47.4	47.4	82	42.2	0	1	270	0.00	29.757 
02:30	47.3	47.3	47.3	82	42.1	0	1	270	0.00	29.756 
02:35	47.3	47.3	47.3	83	42.4	0	0	---	0.00	29.756 
02:40	47.3	47.3	47.3	83	42.4	0	2	270	0.00	29.756 
02:45	47.3	47.3	47.3	83	42.4	0	1	270	0.00	29.760 
02:50	47.3	47.3	47.3	83	42.4	0	1	270	0.00	29.760 
02:55	47.4	47.4	47.4	83	42.5	0	2	270	0.00	29.760 
03:00	47.6	47.6	47.6	83	42.7	0	1	270	0.00	29.756 
03:05	47.6	47.6	47.6	83	42.7	0	1	270	0.00	29.756 
03:10	47.6	47.6	47.6	83	42.7	0	1	270	0.00	29.756 
03:15	47.7	47.7	47.7	83	42.8	0	1	270	0.00	29.752 
03:20	47.7	47.7	47.7	83	42.8	0	1	270	0.00	29.752 
03:25	47.6	47.6	47.6	83	42.7	0	0	---	0.00	29.752 
03:30	47.6	47.6	47.6	83	42.7	0	1	270	0.00	29.750 
03:35	47.4	47.4	47.4	83	42.5	0	0	---	0.00	29.750 
03:40	47.3	47.3	47.3	84	42.7	0	0	---	0.00	29.750 
03:45	47.1	47.1	47.1	84	42.5	0	0	---	0.00	29.752 
03:50	47.0	47.0	47.0	84	42.4	0	0	---	0.00	29.752 
03:55	46.7	46.7	46.7	84	42.1	0	0	---	0.00	29.752 
04:00	46.5	46.5	46.5	85	42.2	0	0	---	0.00	29.750 
04:05	46.4	46.4	46.4	85	42.1	0	0	---	0.00	29.750 
04:10	46.2	46.2	46.2	85	41.9	0	0	---	0.00	29.750 
04:15	46.1	46.1	46.1	86	42.1	0	0	---	0.00	29.744 
04:20	46.1	46.1	46.1	86	42.1	0	0	---	0.00	29.744 
04:25	46.0	46.0	46.0	86	42.0	0	0	---	0.00	29.744 
04:30	46.0	46.0	46.0	87	42.4	0	1	270	0.00	29.740 
04:35	45.8	45.8	45.8	87	42.2	0	1	270	0.00	29.740 
04:40	45.8	45.8	45.8	87	42.2	0	0	---	0.00	29.740 
04:45	46.0	46.0	46.0	88	42.6	0	1	270	0.00	29.744 
04:50	46.1	46.1	46.1	88	42.7	0	1	270	0.00	29.744 
04:55	46.2	46.2	46.2	88	42.8	0	1	270	0.00	29.744 
05:00	46.4	46.4	46.4	88	43.0	0	0	---	0.00	29.754 
05:05	46.5	46.5	46.5	88	43.1	0	0	---	0.00	29.754 
05:10	46.5	46.5	46.5	88	43.1	0	0	---	0.00	29.754 
05:15	46.7	46.7	46.7	88	43.3	0	0	---	0.00	29.749 
05:20	46.7	46.7	46.7	88	43.3	0	0	---	0.00	29.749 
05:25	46.7	46.7	46.7	88	43.3	0	0	---	0.00	29.749 
05:30	46.7	46.7	46.7	88	43.3	0	0	---	0.00	29.751 
05:35	46.7	46.7	46.7	88	43.3	0	0	---	0.00	29.751 
05:40	46.7	46.7	46.7	88	43.3	0	0	---	0.00	29.751 
05:45	46.7	46.7	46.7	88	43.3	0	0	---	0.00	29.740 
05:50	46.7	46.7	46.7	88	43.3	0	1	270	0.00	29.740 
05:55	46.7	46.7	46.7	88	43.3	0	1	270	0.00	29.740 
06:00	46.7	46.7	46.7	88	43.3	0	1	270	0.00	29.741 
06:05	46.8	46.8	46.8	89	43.7	0	1	270	0.00	29.741 
06:10	47.0	47.0	47.0	89	43.9	0	1	270	0.00	29.741 
06:15	47.1	47.1	47.1	89	44.0	0	2	270	0.00	29.750 
06:20	47.3	47.3	47.3	89	44.2	0	1	270	0.00	29.750 
06:25	47.4	47.4	47.4	89	44.3	0	1	270	0.00	29.750 
06:30	47.6	47.6	47.6	89	44.5	0	1	270	0.00	29.751 
06:35	47.6	47.6	47.6	89	44.5	0	1	270	0.00	29.751 
06:40	47.6	47.6	47.6	89	44.5	0	2	270	0.00	29.751 
06:45	47.6	47.6	47.6	89	44.5	0	2	270	0.00	29.752 
06:50	47.6	47.6	47.6	89	44.5	0	1	270	0.00	29.752 
06:55	47.7	47.7	47.7	89	44.6	0	2	270	0.00	29.752 
07:00	47.7	47.7	47.7	88	44.3	0	1	270	0.00	29.753 
07:05	47.9	47.9	47.9	88	44.5	0	1	270	0.00	29.753 
07:10	48.0	48.0	48.0	88	44.6	0	3	270	0.00	29.753 
07:15	48.5	48.5	48.5	88	45.1	0	2	270	0.00	29.755 
07:20	48.8	48.8	48.8	87	45.1	1	3	270	0.00	29.755 
07:25	49.4	49.4	49.4	86	45.4	0	3	270	0.00	29.755 
07:30	49.8	49.8	49.8	84	45.2	0	3	270	0.00	29.760 
07:35	50.4	50.4	50.4	82	45.1	1	4	270	0.00	29.760 
07:40	50.8	50.8	50.8	81	45.2	1	4	270	0.00	29.760 
07:45	51.4	51.4	51.4	79	45.1	1	5	270	0.00	29.762 
07:50	51.9	51.9	51.9	78	45.3	1	4	270	0.00	29.762 
07:55	52.5	52.5	52.5	76	45.2	1	3	270	0.00	29.762 
08:00	53.1	53.1	53.1	75	45.4	1	4	270	0.00	29.761 
08:05	53.5	53.5	53.5	74	45.4	1	4	270	0.00	29.761 
08:10	54.1	54.1	54.1	73	45.6	1	6	270	0.00	29.761 
08:15	54.7	54.7	54.7	71	45.5	1	4	270	0.00	29.760 
08:20	55.1	55.1	55.1	69	45.1	2	4	270	0.00	29.760 
08:25	55.6	55.6	55.6	68	45.2	2	6	270	0.00	29.760 
08:30	56.3	56.3	56.3	67	45.5	1	4	248	0.00	29.761 
08:35	57.0	57.0	57.0	66	45.8	1	4	248	0.00	29.761 
08:40	57.6	57.6	57.6	65	45.9	1	4	270	0.00	29.761 
08:45	58.1	58.1	58.1	62	45.1	2	4	270	0.00	29.758 
08:50	58.4	58.4	58.4	62	45.4	2	5	270	0.00	29.758 
08:55	58.9	58.9	58.9	61	45.5	2	5	270	0.00	29.758 
09:00	59.3	59.3	59.3	60	45.4	2	5	270	0.00	29.758 
09:05	59.8	59.8	59.8	59	45.4	2	6	315	0.00	29.758 
09:10	60.2	60.2	60.2	58	45.4	2	5	270	0.00	29.758 
09:15	60.7	60.7	60.7	57	45.4	2	5	248	0.00	29.758 
09:20	61.0	61.0	61.0	57	45.7	2	5	248	0.00	29.758 
09:25	61.3	61.3	61.3	56	45.5	2	4	270	0.00	29.758 
09:30	61.6	61.6	61.6	55	45.3	2	4	270	0.00	29.761 
09:35	62.0	62.0	62.0	54	45.2	2	6	270	0.00	29.761 
09:40	62.1	62.1	62.1	53	44.8	3	7	270	0.00	29.761 
09:45	62.4	62.4	62.4	54	45.5	3	6	270	0.00	29.763 
09:50	62.9	62.9	62.9	53	45.5	3	7	270	0.00	29.763 
09:55	63.1	63.1	63.1	52	45.2	3	5	270	0.00	29.763 
10:00	63.5	63.5	63.5	52	45.6	2	6	270	0.00	29.761 
10:05	64.0	64.0	64.0	51	45.5	2	4	270	0.00	29.761 
10:10	64.3	64.3	64.3	51	45.8	2	6	270	0.00	29.761 
10:15	64.5	64.5	64.5	50	45.4	3	6	270	0.00	29.763 
10:20	64.5	64.5	64.5	50	45.4	3	6	270	0.00	29.763 
10:25	64.5	64.5	64.5	50	45.4	4	7	270	0.00	29.763 
10:30	64.8	64.8	64.8	51	46.2	3	5	248	0.00	29.762 
10:35	65.2	65.2	65.2	50	46.1	3	7	270	0.00	29.762 
10:40	65.6	65.6	65.6	50	46.5	3	6	270	0.00	29.762 
10:45	65.8	65.8	65.8	49	46.1	3	7	270	0.00	29.758 
10:50	66.1	66.1	66.1	51	47.4	3	7	270	0.00	29.758 
10:55	66.6	66.6	66.6	49	46.8	2	5	270	0.00	29.758 
11:00	66.9	66.9	66.9	46	45.4	3	7	270	0.00	29.757 
11:05	67.1	67.1	67.1	47	46.2	3	9	270	0.00	29.757 
11:10	66.9	66.9	66.9	46	45.4	4	7	270	0.00	29.757 
11:15	67.1	67.1	67.1	45	45.0	4	9	270	0.00	29.759 
11:20	67.1	67.1	67.1	46	45.6	4	10	270	0.00	29.759 
11:25	67.8	67.8	67.8	47	46.8	3	7	270	0.00	29.759 
11:30	67.9	67.9	67.9	45	45.8	4	7	270	0.00	29.758 
11:35	67.9	67.9	67.9	44	45.2	4	9	270	0.00	29.758 
11:40	68.3	68.3	68.3	43	44.9	3	6	270	0.00	29.758 
11:45	68.4	68.4	68.4	46	46.8	3	7	270	0.00	29.755 
11:50	68.8	68.8	68.8	42	44.8	4	7	270	0.00	29.755 
11:55	68.6	68.6	68.6	41	44.0	5	10	270	0.00	29.755 
12:00	68.8	68.8	68.8	43	45.4	5	9	270	0.00	29.757 
12:05	69.1	69.1	69.1	41	44.4	4	11	270	0.00	29.757 
12:10	69.4	69.4	69.4	40	44.0	4	10	270	0.00	29.757 
12:15	69.3	69.3	69.3	40	43.9	5	10	270	0.00	29.755 
12:20	69.8	69.8	69.8	41	45.0	3	6	270	0.00	29.755 
12:25	70.3	70.3	70.3	37	42.8	4	10	270	0.00	29.755 
12:30	69.8	69.8	69.8	37	42.3	6	12	270	0.00	29.753 
12:35	70.1	70.1	70.1	37	42.6	4	9	270	0.00	29.753 
12:40	70.3	70.3	70.3	37	42.8	4	6	248	0.00	29.753 
12:45	70.6	70.6	70.6	34	40.9	4	11	270	0.00	29.750 
12:50	69.6	69.6	69.6	36	41.5	4	9	270	0.00	29.750 
12:55	69.1	69.1	69.1	37	41.7	4	6	270	0.00	29.750 
13:00	69.6	69.6	69.6	36	41.5	2	5	270	0.00	29.753 
13:05	69.4	69.4	69.4	32	38.3	4	8	270	0.00	29.753 
13:10	69.3	69.3	69.3	35	40.5	4	10	270	0.00	29.753 
13:15	69.6	69.6	69.6	33	39.2	3	7	248	0.00	29.753 
13:20	69.9	69.9	69.9	35	41.0	3	10	270	0.00	29.753 
13:25	70.3	70.3	70.3	32	39.0	3	6	270	0.00	29.753 
13:30	71.3	71.3	71.3	31	39.1	4	9	270	0.00	29.750 
13:35	71.1	71.1	71.1	31	38.9	5	10	270	0.00	29.750 
13:40	71.1	71.1	71.1	31	38.9	4	9	270	0.00	29.750 
13:45	70.9	70.9	70.9	31	38.7	3	9	270	0.00	29.741 
13:50	70.8	70.8	70.8	33	40.3	4	8	270	0.00	29.741 
13:55	70.4	70.4	70.4	33	39.9	4	8	270	0.00	29.741 
14:00	70.3	70.3	70.3	34	40.6	4	7	270	0.00	29.745 
14:05	70.1	70.1	70.1	33	39.7	3	6	270	0.00	29.745 
14:10	71.1	71.1	71.1	33	40.5	4	8	270	0.00	29.745 
14:15	71.8	71.8	71.8	34	41.9	4	7	270	0.00	29.737 
14:20	71.8	71.8	71.8	31	39.5	3	11	270	0.00	29.737 
14:25	71.1	71.1	71.1	33	40.5	2	5	270	0.00	29.737 
14:30	71.5	71.5	71.5	34	41.6	3	5	270	0.00	29.736 
14:35	71.6	71.6	71.6	31	39.4	4	10	270	0.00	29.736 
14:40	71.3	71.3	71.3	32	39.9	3	7	270	0.00	29.736 
14:45	71.8	71.8	71.8	31	39.5	5	11	270	0.00	29.733 
14:50	72.1	72.1	72.1	30	38.9	4	7	270	0.00	29.733 
14:55	72.5	72.5	72.5	30	39.3	4	9	270	0.00	29.733 
15:00	73.0	73.0	73.0	29	38.9	3	6	270	0.00	29.726 
15:05	73.3	73.3	73.3	28	38.2	3	7	270	0.00	29.726 
15:10	73.9	73.9	73.9	30	40.5	4	7	270	0.00	29.726 
15:15	74.0	74.0	74.0	32	42.3	4	6	270	0.00	29.725 
15:20	74.0	74.0	74.0	30	40.6	3	10	270	0.00	29.725 
15:25	72.7	72.7	72.7	31	40.3	3	7	270	0.00	29.725 
15:30	72.7	72.7	72.7	32	41.1	3	7	270	0.00	29.723 
15:35	72.8	72.8	72.8	31	40.4	4	9	270	0.00	29.723 
15:40	72.3	72.3	72.3	34	42.3	3	7	270	0.00	29.723 
15:45	72.0	72.0	72.0	38	45.0	2	4	270	0.00	29.726 
15:50	70.9	70.9	70.9	40	45.4	2	6	248	0.00	29.726 
15:55	70.3	70.3	70.3	43	46.7	4	9	248	0.00	29.726 
16:00	69.9	69.9	69.9	44	47.0	4	8	270	0.00	29.739 
16:05	69.8	69.8	69.8	41	45.0	5	9	270	0.00	29.739 
16:10	69.4	69.4	69.4	41	44.7	4	11	248	0.00	29.739 
16:15	69.3	69.3	69.3	44	46.4	3	6	270	0.00	29.740 
16:20	69.4	69.4	69.4	41	44.7	2	7	225	0.00	29.740 
16:25	69.8	69.8	69.8	43	46.3	1	6	292	0.00	29.740 
16:30	69.9	69.9	69.9	42	45.8	3	13	248	0.00	29.738 
16:35	69.8	69.8	69.8	43	46.3	3	7	248	0.00	29.738 
16:40	69.9	69.9	69.9	45	47.6	2	5	248	0.00	29.738 
16:45	70.3	70.3	70.3	44	47.3	1	3	270	0.00	29.737 
16:50	70.8	70.8	70.8	43	47.2	2	7	248	0.00	29.737 
16:55	71.1	71.1	71.1	39	44.9	3	7	270	0.00	29.737 
17:00	70.4	70.4	70.4	39	44.2	3	6	270	0.00	29.732 
17:05	70.1	70.1	70.1	41	45.3	2	5	270	0.00	29.732 
17:10	69.4	69.4	69.4	39	43.4	3	9	270	0.00	29.732 
17:15	69.6	69.6	69.6	35	40.7	3	7	270	0.00	29.738 
17:20	70.3	70.3	70.3	36	42.1	3	8	270	0.00	29.738 
17:25	71.1	71.1	71.1	34	41.3	3	9	270	0.00	29.738 
17:30	71.1	71.1	71.1	36	42.8	3	8	270	0.00	29.735 
17:35	70.9	70.9	70.9	36	42.6	3	8	270	0.00	29.735 
17:40	70.6	70.6	70.6	38	43.7	2	5	270	0.00	29.735 
17:45	69.8	69.8	69.8	41	45.0	4	11	248	0.00	29.742 
17:50	68.6	68.6	68.6	43	45.2	3	7	248	0.00	29.742 
17:55	67.9	67.9	67.9	45	45.8	2	4	248	0.00	29.742 
18:00	67.4	67.4	67.4	47	46.5	2	5	270	0.00	29.754 
18:05	66.9	66.9	66.9	48	46.6	1	4	270	0.00	29.754 
18:10	66.6	66.6	66.6	48	46.3	1	4	315	0.00	29.754 
18:15	66.3	66.3	66.3	49	46.6	1	5	315	0.00	29.755 
18:20	66.1	66.1	66.1	48	45.8	1	5	270	0.00	29.755 
18:25	66.4	66.4	66.4	47	45.5	2	6	270	0.00	29.755 
18:30	67.1	67.1	67.1	45	45.0	3	7	270	0.00	29.753 
18:35	67.8	67.8	67.8	44	45.1	4	10	270	0.00	29.753 
18:40	68.3	68.3	68.3	43	44.9	2	10	270	0.00	29.753 
18:45	68.1	68.1	68.1	43	44.7	3	9	248	0.00	29.751 
18:50	67.6	67.6	67.6	44	44.9	3	8	270	0.00	29.751 
18:55	66.9	66.9	66.9	45	44.9	2	4	248	0.00	29.751 
19:00	66.6	66.6	66.6	46	45.2	3	7	270	0.00	29.755 
19:05	66.6	66.6	66.6	48	46.3	3	5	270	0.00	29.755 
19:10	66.8	66.8	66.8	48	46.5	3	7	248	0.00	29.755 
19:15	66.4	66.4	66.4	49	46.7	3	7	270	0.00	29.752 
19:20	65.8	65.8	65.8	48	45.6	3	10	270	0.00	29.752 
19:25	65.5	65.5	65.5	48	45.3	2	6	248	0.00	29.752 
19:30	65.6	65.6	65.6	48	45.4	2	6	248	0.00	29.754 
19:35	65.8	65.8	65.8	43	42.7	2	7	248	0.00	29.754 
19:40	66.0	66.0	66.0	42	42.2	2	7	270	0.00	29.754 
19:45	66.1	66.1	66.1	41	41.7	2	5	270	0.00	29.757 
19:50	66.3	66.3	66.3	40	41.2	3	6	270	0.00	29.757 
19:55	66.3	66.3	66.3	40	41.2	3	6	270	0.00	29.757 
20:00	66.3	66.3	66.3	40	41.2	2	4	270	0.00	29.761 
20:05	66.0	66.0	66.0	41	41.6	2	5	270	0.00	29.761 
20:10	65.6	65.6	65.6	41	41.3	2	5	270	0.00	29.761 
20:15	65.5	65.5	65.5	42	41.8	2	5	270	0.00	29.764 
20:20	65.2	65.2	65.2	43	42.1	2	6	270	0.00	29.764 
20:25	64.7	64.7	64.7	43	41.7	1	4	270	0.00	29.764 
20:30	64.5	64.5	64.5	44	42.1	0	2	248	0.00	29.765 
20:35	64.0	64.0	64.0	45	42.2	0	1	248	0.00	29.765 
20:40	63.7	63.7	63.7	46	42.5	1	5	270	0.00	29.765 
20:45	63.4	63.4	63.4	47	42.8	1	4	270	0.00	29.770 
20:50	63.1	63.1	63.1	48	43.1	0	2	270	0.00	29.770 
20:55	62.7	62.7	62.7	49	43.3	0	1	270	0.00	29.770 
21:00	62.3	62.3	62.3	49	42.9	0	1	270	0.00	29.771 
21:05	62.0	62.0	62.0	50	43.1	0	2	270	0.00	29.771 
21:10	61.8	61.8	61.8	50	43.0	0	1	270	0.00	29.771 
21:15	61.5	61.5	61.5	50	42.7	0	2	270	0.00	29.769 
21:20	61.3	61.3	61.3	51	43.0	0	1	270	0.00	29.769 
21:25	61.0	61.0	61.0	52	43.2	0	3	270	0.00	29.769 
21:30	60.9	60.9	60.9	53	43.7	0	2	270	0.00	29.774 
21:35	60.5	60.5	60.5	54	43.8	0	1	270	0.00	29.774 
21:40	60.4	60.4	60.4	54	43.7	0	1	270	0.00	29.774 
21:45	60.2	60.2	60.2	55	44.0	0	1	270	0.00	29.779 
21:50	60.1	60.1	60.1	56	44.3	0	2	270	0.00	29.779 
21:55	59.9	59.9	59.9	57	44.6	0	2	270	0.00	29.779 
22:00	59.8	59.8	59.8	59	45.4	0	2	248	0.00	29.781 
22:05	59.6	59.6	59.6	60	45.7	0	2	248	0.00	29.781 
22:10	59.6	59.6	59.6	61	46.1	0	2	248	0.00	29.781 
22:15	59.6	59.6	59.6	62	46.6	1	3	248	0.00	29.781 
22:20	59.5	59.5	59.5	62	46.5	0	2	292	0.00	29.781 
22:25	59.5	59.5	59.5	63	46.9	0	1	292	0.00	29.781 
22:30	59.3	59.3	59.3	64	47.1	0	1	292	0.00	29.787 
22:35	59.2	59.2	59.2	64	47.0	1	4	248	0.00	29.787 
22:40	59.0	59.0	59.0	65	47.2	1	3	248	0.00	29.787 
22:45	58.9	58.9	58.9	65	47.2	0	3	248	0.00	29.789 
22:50	58.7	58.7	58.7	66	47.4	0	3	248	0.00	29.789 
22:55	58.6	58.6	58.6	67	47.7	0	1	248	0.00	29.789 
23:00	58.4	58.4	58.4	67	47.5	0	2	248	0.00	29.791 
23:05	58.4	58.4	58.4	68	47.9	0	2	248	0.00	29.791 
23:10	58.3	58.3	58.3	69	48.2	0	1	248	0.00	29.791 
23:15	58.3	58.3	58.3	69	48.2	0	1	248	0.00	29.794 
23:20	58.1	58.1	58.1	70	48.4	0	2	248	0.00	29.794 
23:25	58.1	58.1	58.1	70	48.4	0	2	248	0.00	29.794 
23:30	58.0	58.0	58.0	71	48.6	0	2	248	0.00	29.796 
23:35	58.0	58.0	58.0	71	48.6	0	1	248	0.00	29.796 
23:40	58.0	58.0	58.0	72	49.0	0	1	248	0.00	29.796 
23:45	57.8	57.8	57.8	72	48.8	0	1	248	0.00	29.795 
23:50	57.8	57.8	57.8	73	49.2	0	1	248	0.00	29.795 
23:55	57.8	57.8	57.8	73	49.2	0	1	248	0.00	29.795 

CoCoRaHS
IN-AL-39
A2 Web Hosting
Creative Commons License
GoDaddy
search engine by freefind advanced

loaded 2018-11-17 06:21:18 • last modified 2010-11-18 10:43:29
Privacy PolicyDisclaimer
• wx.awcolley.com is powered by PmWiki v.2002016 •
• all content (unless otherwise noted) © 2018 A W Colley